sensor_id;sensor_type;location;lat;lon;timestamp;temperature;humidity
23411;DHT22;11878;51.774;7.220;2023-11-18T00:00:40;2.50;99.90
23411;DHT22;11878;51.774;7.220;2023-11-18T00:03:42;2.40;99.90
23411;DHT22;11878;51.774;7.220;2023-11-18T00:06:45;2.40;99.90
23411;DHT22;11878;51.774;7.220;2023-11-18T00:09:46;2.40;99.90
23411;DHT22;11878;51.774;7.220;2023-11-18T00:12:48;2.20;99.90
23411;DHT22;11878;51.774;7.220;2023-11-18T00:15:50;2.30;99.90
23411;DHT22;11878;51.774;7.220;2023-11-18T00:18:52;2.30;99.90
23411;DHT22;11878;51.774;7.220;2023-11-18T00:21:55;2.20;99.90
23411;DHT22;11878;51.774;7.220;2023-11-18T00:24:56;2.20;99.90
23411;DHT22;11878;51.774;7.220;2023-11-18T00:27:58;2.20;99.90
23411;DHT22;11878;51.774;7.220;2023-11-18T00:31:00;2.20;99.90
23411;DHT22;11878;51.774;7.220;2023-11-18T00:34:02;2.10;99.90
23411;DHT22;11878;51.774;7.220;2023-11-18T00:37:04;2.00;99.90
23411;DHT22;11878;51.774;7.220;2023-11-18T00:40:08;2.00;99.90
23411;DHT22;11878;51.774;7.220;2023-11-18T00:43:11;2.10;99.90
23411;DHT22;11878;51.774;7.220;2023-11-18T00:46:13;2.10;99.90
23411;DHT22;11878;51.774;7.220;2023-11-18T00:49:16;2.00;99.90
23411;DHT22;11878;51.774;7.220;2023-11-18T00:52:19;2.00;99.90
23411;DHT22;11878;51.774;7.220;2023-11-18T00:55:21;2.00;99.90
23411;DHT22;11878;51.774;7.220;2023-11-18T00:58:22;2.00;99.90
23411;DHT22;11878;51.774;7.220;2023-11-18T01:01:24;2.10;99.90
23411;DHT22;11878;51.774;7.220;2023-11-18T01:04:26;1.90;99.90
23411;DHT22;11878;51.774;7.220;2023-11-18T01:07:28;2.10;99.90
23411;DHT22;11878;51.774;7.220;2023-11-18T01:10:30;1.90;99.90
23411;DHT22;11878;51.774;7.220;2023-11-18T01:13:32;1.90;99.90
23411;DHT22;11878;51.774;7.220;2023-11-18T01:16:34;1.80;99.90
23411;DHT22;11878;51.774;7.220;2023-11-18T01:19:36;1.80;99.90
23411;DHT22;11878;51.774;7.220;2023-11-18T01:22:38;1.80;99.90
23411;DHT22;11878;51.774;7.220;2023-11-18T01:29:18;1.90;99.90
23411;DHT22;11878;51.774;7.220;2023-11-18T01:32:20;2.00;99.90
23411;DHT22;11878;51.774;7.220;2023-11-18T01:35:22;1.90;99.90
23411;DHT22;11878;51.774;7.220;2023-11-18T01:38:27;1.90;99.90
23411;DHT22;11878;51.774;7.220;2023-11-18T01:41:30;2.00;99.90
23411;DHT22;11878;51.774;7.220;2023-11-18T01:44:34;1.70;99.90
23411;DHT22;11878;51.774;7.220;2023-11-18T01:47:36;1.70;99.90
23411;DHT22;11878;51.774;7.220;2023-11-18T01:50:41;1.70;99.90
23411;DHT22;11878;51.774;7.220;2023-11-18T01:53:44;1.70;99.90
23411;DHT22;11878;51.774;7.220;2023-11-18T01:56:51;1.70;99.90
23411;DHT22;11878;51.774;7.220;2023-11-18T01:59:53;1.80;99.90
23411;DHT22;11878;51.774;7.220;2023-11-18T02:02:56;1.90;99.90
23411;DHT22;11878;51.774;7.220;2023-11-18T02:05:58;1.90;99.90
23411;DHT22;11878;51.774;7.220;2023-11-18T02:09:00;1.90;99.90
23411;DHT22;11878;51.774;7.220;2023-11-18T02:12:29;2.00;99.90
23411;DHT22;11878;51.774;7.220;2023-11-18T02:15:34;2.10;99.90
23411;DHT22;11878;51.774;7.220;2023-11-18T02:18:38;2.10;99.90
23411;DHT22;11878;51.774;7.220;2023-11-18T02:21:44;2.00;99.90
23411;DHT22;11878;51.774;7.220;2023-11-18T02:24:46;2.10;99.90
23411;DHT22;11878;51.774;7.220;2023-11-18T02:27:48;2.20;99.90
23411;DHT22;11878;51.774;7.220;2023-11-18T02:30:58;2.10;99.90
23411;DHT22;11878;51.774;7.220;2023-11-18T02:34:09;2.20;99.90
23411;DHT22;11878;51.774;7.220;2023-11-18T02:37:14;2.20;99.90
23411;DHT22;11878;51.774;7.220;2023-11-18T02:40:36;1.90;99.90
23411;DHT22;11878;51.774;7.220;2023-11-18T02:43:40;2.00;99.90
23411;DHT22;11878;51.774;7.220;2023-11-18T02:46:42;1.90;99.90
23411;DHT22;11878;51.774;7.220;2023-11-18T02:49:45;2.00;99.90
23411;DHT22;11878;51.774;7.220;2023-11-18T02:52:47;1.90;99.90
23411;DHT22;11878;51.774;7.220;2023-11-18T02:55:50;2.00;99.90
23411;DHT22;11878;51.774;7.220;2023-11-18T02:58:53;1.80;99.90
23411;DHT22;11878;51.774;7.220;2023-11-18T03:01:55;1.90;99.90
23411;DHT22;11878;51.774;7.220;2023-11-18T03:04:58;1.90;99.90
23411;DHT22;11878;51.774;7.220;2023-11-18T03:08:00;1.80;99.90
23411;DHT22;11878;51.774;7.220;2023-11-18T03:11:02;1.70;99.90
23411;DHT22;11878;51.774;7.220;2023-11-18T03:14:06;1.80;99.90
23411;DHT22;11878;51.774;7.220;2023-11-18T03:17:11;1.80;99.90
23411;DHT22;11878;51.774;7.220;2023-11-18T03:20:13;1.90;99.90
23411;DHT22;11878;51.774;7.220;2023-11-18T03:23:18;1.90;99.90
23411;DHT22;11878;51.774;7.220;2023-11-18T03:26:20;2.00;99.90
23411;DHT22;11878;51.774;7.220;2023-11-18T03:29:23;1.90;99.90
23411;DHT22;11878;51.774;7.220;2023-11-18T03:32:24;1.90;99.90
23411;DHT22;11878;51.774;7.220;2023-11-18T03:35:26;1.80;99.90
23411;DHT22;11878;51.774;7.220;2023-11-18T03:38:28;1.80;99.90
23411;DHT22;11878;51.774;7.220;2023-11-18T03:41:30;1.80;99.90
23411;DHT22;11878;51.774;7.220;2023-11-18T03:44:32;1.90;99.90
23411;DHT22;11878;51.774;7.220;2023-11-18T03:47:35;1.90;99.90
23411;DHT22;11878;51.774;7.220;2023-11-18T03:50:37;1.90;99.90
23411;DHT22;11878;51.774;7.220;2023-11-18T03:53:39;2.10;99.90
23411;DHT22;11878;51.774;7.220;2023-11-18T03:56:41;2.00;99.90
23411;DHT22;11878;51.774;7.220;2023-11-18T04:03:14;1.90;99.90
23411;DHT22;11878;51.774;7.220;2023-11-18T04:06:16;1.80;99.90
23411;DHT22;11878;51.774;7.220;2023-11-18T04:09:18;1.70;99.90
23411;DHT22;11878;51.774;7.220;2023-11-18T04:12:21;1.70;99.90
23411;DHT22;11878;51.774;7.220;2023-11-18T04:15:23;1.70;99.90
23411;DHT22;11878;51.774;7.220;2023-11-18T04:18:26;1.50;99.90
23411;DHT22;11878;51.774;7.220;2023-11-18T04:21:28;1.60;99.90
23411;DHT22;11878;51.774;7.220;2023-11-18T04:24:30;1.60;99.90
23411;DHT22;11878;51.774;7.220;2023-11-18T04:27:32;1.60;99.90
23411;DHT22;11878;51.774;7.220;2023-11-18T04:30:33;1.50;99.90
23411;DHT22;11878;51.774;7.220;2023-11-18T04:33:35;1.60;99.90
23411;DHT22;11878;51.774;7.220;2023-11-18T04:36:37;1.60;99.90
23411;DHT22;11878;51.774;7.220;2023-11-18T04:39:39;1.70;99.90
23411;DHT22;11878;51.774;7.220;2023-11-18T04:42:41;1.60;99.90
23411;DHT22;11878;51.774;7.220;2023-11-18T04:45:46;1.60;99.90
23411;DHT22;11878;51.774;7.220;2023-11-18T04:48:48;1.70;99.90
23411;DHT22;11878;51.774;7.220;2023-11-18T04:51:49;1.50;99.90
23411;DHT22;11878;51.774;7.220;2023-11-18T04:54:51;1.60;99.90
23411;DHT22;11878;51.774;7.220;2023-11-18T04:57:53;1.60;99.90
23411;DHT22;11878;51.774;7.220;2023-11-18T05:00:55;1.60;99.90
23411;DHT22;11878;51.774;7.220;2023-11-18T05:03:57;1.70;99.90
23411;DHT22;11878;51.774;7.220;2023-11-18T05:06:59;1.70;99.90
23411;DHT22;11878;51.774;7.220;2023-11-18T05:13:38;1.60;99.90
23411;DHT22;11878;51.774;7.220;2023-11-18T05:16:41;1.60;99.90
23411;DHT22;11878;51.774;7.220;2023-11-18T05:19:43;1.50;99.90
23411;DHT22;11878;51.774;7.220;2023-11-18T05:22:45;1.50;99.90
23411;DHT22;11878;51.774;7.220;2023-11-18T05:29:17;1.50;99.90
23411;DHT22;11878;51.774;7.220;2023-11-18T05:32:19;1.60;99.90
23411;DHT22;11878;51.774;7.220;2023-11-18T05:35:22;1.60;99.90
23411;DHT22;11878;51.774;7.220;2023-11-18T05:38:29;1.60;99.90
23411;DHT22;11878;51.774;7.220;2023-11-18T05:45:13;0.70;99.90
23411;DHT22;11878;51.774;7.220;2023-11-18T05:55:05;1.80;99.90
23411;DHT22;11878;51.774;7.220;2023-11-18T05:58:07;1.80;99.90
23411;DHT22;11878;51.774;7.220;2023-11-18T06:01:10;1.80;99.90
23411;DHT22;11878;51.774;7.220;2023-11-18T06:04:13;1.80;99.90
23411;DHT22;11878;51.774;7.220;2023-11-18T06:10:53;1.90;99.90
23411;DHT22;11878;51.774;7.220;2023-11-18T06:13:58;1.90;99.90
23411;DHT22;11878;51.774;7.220;2023-11-18T06:20:37;2.00;99.90
23411;DHT22;11878;51.774;7.220;2023-11-18T06:23:40;2.00;99.90
23411;DHT22;11878;51.774;7.220;2023-11-18T06:26:43;2.00;99.90
23411;DHT22;11878;51.774;7.220;2023-11-18T06:29:45;2.10;99.90
23411;DHT22;11878;51.774;7.220;2023-11-18T06:36:24;2.20;99.90
23411;DHT22;11878;51.774;7.220;2023-11-18T06:53:25;2.20;99.90
23411;DHT22;11878;51.774;7.220;2023-11-18T06:56:28;2.20;99.90
23411;DHT22;11878;51.774;7.220;2023-11-18T06:59:29;2.20;99.90
23411;DHT22;11878;51.774;7.220;2023-11-18T07:02:31;2.20;99.90
23411;DHT22;11878;51.774;7.220;2023-11-18T07:09:05;2.20;99.90
23411;DHT22;11878;51.774;7.220;2023-11-18T07:15:51;2.40;99.90
23411;DHT22;11878;51.774;7.220;2023-11-18T07:18:55;2.30;99.90
23411;DHT22;11878;51.774;7.220;2023-11-18T07:21:57;2.40;99.90
23411;DHT22;11878;51.774;7.220;2023-11-18T07:24:59;2.40;99.90
23411;DHT22;11878;51.774;7.220;2023-11-18T07:28:03;2.40;99.90
23411;DHT22;11878;51.774;7.220;2023-11-18T07:34:37;2.50;99.90
23411;DHT22;11878;51.774;7.220;2023-11-18T07:41:35;2.60;99.90
23411;DHT22;11878;51.774;7.220;2023-11-18T07:48:09;2.70;99.90
23411;DHT22;11878;51.774;7.220;2023-11-18T07:51:11;2.80;99.90
23411;DHT22;11878;51.774;7.220;2023-11-18T07:54:13;2.80;99.90
23411;DHT22;11878;51.774;7.220;2023-11-18T07:57:15;2.90;99.90
23411;DHT22;11878;51.774;7.220;2023-11-18T08:00:16;3.00;99.90
23411;DHT22;11878;51.774;7.220;2023-11-18T08:14:12;3.30;99.90
23411;DHT22;11878;51.774;7.220;2023-11-18T08:24:16;3.30;99.90
23411;DHT22;11878;51.774;7.220;2023-11-18T08:27:18;3.30;99.90
23411;DHT22;11878;51.774;7.220;2023-11-18T08:30:20;3.40;99.90
23411;DHT22;11878;51.774;7.220;2023-11-18T08:33:23;3.40;99.90
23411;DHT22;11878;51.774;7.220;2023-11-18T08:36:28;1.30;99.90
23411;DHT22;11878;51.774;7.220;2023-11-18T08:50:08;3.60;99.90
23411;DHT22;11878;51.774;7.220;2023-11-18T09:03:46;3.70;99.90
23411;DHT22;11878;51.774;7.220;2023-11-18T09:06:53;3.80;99.90
23411;DHT22;11878;51.774;7.220;2023-11-18T09:13:28;3.90;99.90
23411;DHT22;11878;51.774;7.220;2023-11-18T09:16:30;3.90;99.90
23411;DHT22;11878;51.774;7.220;2023-11-18T09:48:31;4.80;99.90
23411;DHT22;11878;51.774;7.220;2023-11-18T09:51:44;4.80;99.90
23411;DHT22;11878;51.774;7.220;2023-11-18T09:55:02;4.80;99.90
23411;DHT22;11878;51.774;7.220;2023-11-18T09:58:06;4.90;99.90
23411;DHT22;11878;51.774;7.220;2023-11-18T10:31:02;5.40;99.90
23411;DHT22;11878;51.774;7.220;2023-11-18T10:34:07;5.40;99.90
23411;DHT22;11878;51.774;7.220;2023-11-18T10:37:13;5.50;99.90
23411;DHT22;11878;51.774;7.220;2023-11-18T10:40:15;5.50;99.90
23411;DHT22;11878;51.774;7.220;2023-11-18T10:43:17;5.50;99.90
23411;DHT22;11878;51.774;7.220;2023-11-18T10:53:34;5.80;99.90
23411;DHT22;11878;51.774;7.220;2023-11-18T10:56:46;5.80;99.90
23411;DHT22;11878;51.774;7.220;2023-11-18T11:06:45;5.70;99.90
23411;DHT22;11878;51.774;7.220;2023-11-18T11:09:53;5.80;99.90
23411;DHT22;11878;51.774;7.220;2023-11-18T11:17:08;5.90;99.90
23411;DHT22;11878;51.774;7.220;2023-11-18T11:20:19;7.60;99.90
23411;DHT22;11878;51.774;7.220;2023-11-18T11:30:52;6.10;99.90
23411;DHT22;11878;51.774;7.220;2023-11-18T11:44:30;6.20;99.90
23411;DHT22;11878;51.774;7.220;2023-11-18T11:51:24;6.30;99.90
23411;DHT22;11878;51.774;7.220;2023-11-18T12:15:53;6.60;99.90
23411;DHT22;11878;51.774;7.220;2023-11-18T12:19:31;6.60;99.90
23411;DHT22;11878;51.774;7.220;2023-11-18T12:23:04;6.60;99.90
23411;DHT22;11878;51.774;7.220;2023-11-18T12:26:52;6.70;99.90
23411;DHT22;11878;51.774;7.220;2023-11-18T12:29:55;6.70;99.90
23411;DHT22;11878;51.774;7.220;2023-11-18T12:43:07;6.50;99.90
23411;DHT22;11878;51.774;7.220;2023-11-18T12:46:48;6.50;99.90
23411;DHT22;11878;51.774;7.220;2023-11-18T13:11:30;6.90;99.90
23411;DHT22;11878;51.774;7.220;2023-11-18T13:18:04;6.90;99.90
23411;DHT22;11878;51.774;7.220;2023-11-18T13:50:12;6.90;99.90
23411;DHT22;11878;51.774;7.220;2023-11-18T13:53:15;7.60;99.90
23411;DHT22;11878;51.774;7.220;2023-11-18T14:14:25;6.90;99.90
23411;DHT22;11878;51.774;7.220;2023-11-18T14:17:29;6.90;99.90
23411;DHT22;11878;51.774;7.220;2023-11-18T14:27:24;7.00;99.90
23411;DHT22;11878;51.774;7.220;2023-11-18T14:48:01;6.90;99.90
23411;DHT22;11878;51.774;7.220;2023-11-18T14:51:06;6.90;99.90
23411;DHT22;11878;51.774;7.220;2023-11-18T14:54:08;6.90;99.90
23411;DHT22;11878;51.774;7.220;2023-11-18T15:15:21;6.80;99.90
23411;DHT22;11878;51.774;7.220;2023-11-18T15:18:23;6.80;99.90
23411;DHT22;11878;51.774;7.220;2023-11-18T15:21:25;6.70;99.90
23411;DHT22;11878;51.774;7.220;2023-11-18T15:31:21;6.70;99.90
23411;DHT22;11878;51.774;7.220;2023-11-18T15:34:25;6.70;99.90
23411;DHT22;11878;51.774;7.220;2023-11-18T15:37:27;6.70;99.90
23411;DHT22;11878;51.774;7.220;2023-11-18T15:40:30;6.70;99.90
23411;DHT22;11878;51.774;7.220;2023-11-18T15:43:32;6.70;99.90
23411;DHT22;11878;51.774;7.220;2023-11-18T15:46:34;6.70;99.90
23411;DHT22;11878;51.774;7.220;2023-11-18T15:49:39;6.70;99.90
23411;DHT22;11878;51.774;7.220;2023-11-18T15:56:18;6.70;99.90
23411;DHT22;11878;51.774;7.220;2023-11-18T15:59:20;6.70;99.90
23411;DHT22;11878;51.774;7.220;2023-11-18T16:02:22;6.70;99.90
23411;DHT22;11878;51.774;7.220;2023-11-18T16:22:46;6.80;99.90
23411;DHT22;11878;51.774;7.220;2023-11-18T16:25:49;6.70;99.90
23411;DHT22;11878;51.774;7.220;2023-11-18T16:28:51;6.80;99.90
23411;DHT22;11878;51.774;7.220;2023-11-18T16:38:57;7.70;99.90
23411;DHT22;11878;51.774;7.220;2023-11-18T16:42:01;6.90;99.90
23411;DHT22;11878;51.774;7.220;2023-11-18T16:45:03;6.90;99.90
23411;DHT22;11878;51.774;7.220;2023-11-18T16:58:55;6.90;99.90
23411;DHT22;11878;51.774;7.220;2023-11-18T17:01:57;6.90;99.90
23411;DHT22;11878;51.774;7.220;2023-11-18T17:04:59;6.90;99.90
23411;DHT22;11878;51.774;7.220;2023-11-18T17:11:32;6.90;99.90
23411;DHT22;11878;51.774;7.220;2023-11-18T17:18:13;6.90;99.90
23411;DHT22;11878;51.774;7.220;2023-11-18T17:28:17;7.00;99.90
23411;DHT22;11878;51.774;7.220;2023-11-18T17:42:12;7.10;99.90
23411;DHT22;11878;51.774;7.220;2023-11-18T17:45:14;7.10;99.90
23411;DHT22;11878;51.774;7.220;2023-11-18T17:48:18;7.10;99.90
23411;DHT22;11878;51.774;7.220;2023-11-18T17:54:50;7.10;99.90
23411;DHT22;11878;51.774;7.220;2023-11-18T17:57:54;7.10;99.90
23411;DHT22;11878;51.774;7.220;2023-11-18T18:04:26;7.10;99.90
23411;DHT22;11878;51.774;7.220;2023-11-18T18:07:28;7.20;99.90
23411;DHT22;11878;51.774;7.220;2023-11-18T18:14:00;7.20;99.90
23411;DHT22;11878;51.774;7.220;2023-11-18T18:17:02;7.30;99.90
23411;DHT22;11878;51.774;7.220;2023-11-18T18:20:07;7.30;99.90
23411;DHT22;11878;51.774;7.220;2023-11-18T18:23:12;7.30;99.90
23411;DHT22;11878;51.774;7.220;2023-11-18T18:26:13;7.30;99.90
23411;DHT22;11878;51.774;7.220;2023-11-18T18:33:05;7.40;99.90
23411;DHT22;11878;51.774;7.220;2023-11-18T18:36:09;7.50;99.90
23411;DHT22;11878;51.774;7.220;2023-11-18T18:42:34;7.50;99.90
23411;DHT22;11878;51.774;7.220;2023-11-18T18:45:36;7.60;99.90
23411;DHT22;11878;51.774;7.220;2023-11-18T18:48:38;7.60;99.90
23411;DHT22;11878;51.774;7.220;2023-11-18T18:55:17;7.70;99.90
23411;DHT22;11878;51.774;7.220;2023-11-18T18:58:19;7.70;99.90
23411;DHT22;11878;51.774;7.220;2023-11-18T19:01:21;7.70;99.90
23411;DHT22;11878;51.774;7.220;2023-11-18T19:04:24;6.50;99.90
23411;DHT22;11878;51.774;7.220;2023-11-18T19:07:26;7.70;99.90
23411;DHT22;11878;51.774;7.220;2023-11-18T19:10:30;7.80;99.90
23411;DHT22;11878;51.774;7.220;2023-11-18T19:13:32;7.80;99.90
23411;DHT22;11878;51.774;7.220;2023-11-18T19:16:34;7.80;99.90
23411;DHT22;11878;51.774;7.220;2023-11-18T19:23:13;7.90;99.90
23411;DHT22;11878;51.774;7.220;2023-11-18T19:26:15;8.00;99.90
23411;DHT22;11878;51.774;7.220;2023-11-18T19:29:17;8.00;99.90
23411;DHT22;11878;51.774;7.220;2023-11-18T19:32:19;8.00;99.90
23411;DHT22;11878;51.774;7.220;2023-11-18T19:35:21;8.10;99.90
23411;DHT22;11878;51.774;7.220;2023-11-18T19:38:24;8.00;99.90
23411;DHT22;11878;51.774;7.220;2023-11-18T19:41:25;8.00;99.90
23411;DHT22;11878;51.774;7.220;2023-11-18T19:44:28;8.10;99.90
23411;DHT22;11878;51.774;7.220;2023-11-18T19:47:32;8.00;99.90
23411;DHT22;11878;51.774;7.220;2023-11-18T19:50:34;8.10;99.90
23411;DHT22;11878;51.774;7.220;2023-11-18T19:53:36;8.10;99.90
23411;DHT22;11878;51.774;7.220;2023-11-18T19:56:38;8.10;99.90
23411;DHT22;11878;51.774;7.220;2023-11-18T19:59:40;8.10;99.90
23411;DHT22;11878;51.774;7.220;2023-11-18T20:02:43;8.20;99.90
23411;DHT22;11878;51.774;7.220;2023-11-18T20:05:45;8.20;99.90
23411;DHT22;11878;51.774;7.220;2023-11-18T20:08:47;8.20;99.90
23411;DHT22;11878;51.774;7.220;2023-11-18T20:14:51;8.20;99.90
23411;DHT22;11878;51.774;7.220;2023-11-18T20:17:54;8.30;99.90
23411;DHT22;11878;51.774;7.220;2023-11-18T20:20:56;8.30;99.90
23411;DHT22;11878;51.774;7.220;2023-11-18T20:27:36;8.40;99.90
23411;DHT22;11878;51.774;7.220;2023-11-18T20:34:10;8.40;99.90
23411;DHT22;11878;51.774;7.220;2023-11-18T20:37:13;8.50;99.90
23411;DHT22;11878;51.774;7.220;2023-11-18T20:40:15;8.50;99.90
23411;DHT22;11878;51.774;7.220;2023-11-18T20:47:00;8.60;99.90
23411;DHT22;11878;51.774;7.220;2023-11-18T20:50:02;8.60;99.90
23411;DHT22;11878;51.774;7.220;2023-11-18T20:53:05;8.60;99.90
23411;DHT22;11878;51.774;7.220;2023-11-18T20:56:09;8.70;99.90
23411;DHT22;11878;51.774;7.220;2023-11-18T20:59:11;8.70;99.90
23411;DHT22;11878;51.774;7.220;2023-11-18T21:02:12;8.70;99.90
23411;DHT22;11878;51.774;7.220;2023-11-18T21:05:14;8.80;99.90
23411;DHT22;11878;51.774;7.220;2023-11-18T21:08:16;8.80;99.90
23411;DHT22;11878;51.774;7.220;2023-11-18T21:11:18;8.80;99.90
23411;DHT22;11878;51.774;7.220;2023-11-18T21:14:22;8.90;99.90
23411;DHT22;11878;51.774;7.220;2023-11-18T21:17:24;9.00;99.90
23411;DHT22;11878;51.774;7.220;2023-11-18T21:20:27;9.00;99.90
23411;DHT22;11878;51.774;7.220;2023-11-18T21:23:29;9.00;99.90
23411;DHT22;11878;51.774;7.220;2023-11-18T21:26:32;9.00;99.90
23411;DHT22;11878;51.774;7.220;2023-11-18T21:33:04;9.10;99.90
23411;DHT22;11878;51.774;7.220;2023-11-18T21:36:08;9.10;99.90
23411;DHT22;11878;51.774;7.220;2023-11-18T21:42:45;9.20;99.90
23411;DHT22;11878;51.774;7.220;2023-11-18T21:45:47;9.20;99.90
23411;DHT22;11878;51.774;7.220;2023-11-18T21:48:49;9.20;99.90
23411;DHT22;11878;51.774;7.220;2023-11-18T21:51:51;9.20;99.90
23411;DHT22;11878;51.774;7.220;2023-11-18T21:54:53;9.20;99.90
23411;DHT22;11878;51.774;7.220;2023-11-18T21:57:55;9.30;99.90
23411;DHT22;11878;51.774;7.220;2023-11-18T22:00:57;9.30;99.90
23411;DHT22;11878;51.774;7.220;2023-11-18T22:04:00;9.40;99.90
23411;DHT22;11878;51.774;7.220;2023-11-18T22:07:02;9.40;99.90
23411;DHT22;11878;51.774;7.220;2023-11-18T22:10:07;9.40;99.90
23411;DHT22;11878;51.774;7.220;2023-11-18T22:13:12;9.40;99.90
23411;DHT22;11878;51.774;7.220;2023-11-18T22:16:14;9.40;99.90
23411;DHT22;11878;51.774;7.220;2023-11-18T22:19:16;9.50;99.90
23411;DHT22;11878;51.774;7.220;2023-11-18T22:22:19;9.50;99.90
23411;DHT22;11878;51.774;7.220;2023-11-18T22:25:20;9.50;99.90
23411;DHT22;11878;51.774;7.220;2023-11-18T22:28:22;9.60;99.90
23411;DHT22;11878;51.774;7.220;2023-11-18T22:31:24;9.60;99.90
23411;DHT22;11878;51.774;7.220;2023-11-18T22:34:27;9.60;99.90
23411;DHT22;11878;51.774;7.220;2023-11-18T22:37:29;9.70;99.90
23411;DHT22;11878;51.774;7.220;2023-11-18T22:40:32;9.70;99.90
23411;DHT22;11878;51.774;7.220;2023-11-18T22:50:29;9.70;99.90
23411;DHT22;11878;51.774;7.220;2023-11-18T23:00:40;9.80;99.90
23411;DHT22;11878;51.774;7.220;2023-11-18T23:03:51;9.80;99.90
23411;DHT22;11878;51.774;7.220;2023-11-18T23:06:53;9.80;99.90
23411;DHT22;11878;51.774;7.220;2023-11-18T23:09:59;9.90;99.90
23411;DHT22;11878;51.774;7.220;2023-11-18T23:13:02;9.80;99.90
23411;DHT22;11878;51.774;7.220;2023-11-18T23:16:05;9.80;99.90
23411;DHT22;11878;51.774;7.220;2023-11-18T23:26:16;9.90;99.90
23411;DHT22;11878;51.774;7.220;2023-11-18T23:29:18;9.90;99.90
23411;DHT22;11878;51.774;7.220;2023-11-18T23:32:19;10.00;99.90
23411;DHT22;11878;51.774;7.220;2023-11-18T23:35:21;10.00;99.90
23411;DHT22;11878;51.774;7.220;2023-11-18T23:38:24;10.00;99.90
23411;DHT22;11878;51.774;7.220;2023-11-18T23:41:26;10.10;99.90
23411;DHT22;11878;51.774;7.220;2023-11-18T23:44:27;10.10;99.90
23411;DHT22;11878;51.774;7.220;2023-11-18T23:47:29;10.10;99.90
23411;DHT22;11878;51.774;7.220;2023-11-18T23:50:31;10.10;99.90
23411;DHT22;11878;51.774;7.220;2023-11-18T23:53:33;10.20;99.90
23411;DHT22;11878;51.774;7.220;2023-11-18T23:56:35;10.20;99.90
23411;DHT22;11878;51.774;7.220;2023-11-18T23:59:37;10.20;99.90
